sensor_id;sensor_type;location;lat;lon;timestamp;P1;durP1;ratioP1;P2;durP2;ratioP2
28176;SDS011;15461;41.652;9.378;2023-10-09T00:00:15;6.43;;;4.32;;
28176;SDS011;15461;41.652;9.378;2023-10-09T00:03:00;8.50;;;4.22;;
28176;SDS011;15461;41.652;9.378;2023-10-09T00:05:29;6.90;;;4.57;;
28176;SDS011;15461;41.652;9.378;2023-10-09T00:08:24;5.90;;;4.53;;
28176;SDS011;15461;41.652;9.378;2023-10-09T00:10:59;8.95;;;5.03;;
28176;SDS011;15461;41.652;9.378;2023-10-09T00:13:39;6.90;;;4.32;;
28176;SDS011;15461;41.652;9.378;2023-10-09T00:16:23;5.97;;;4.40;;
28176;SDS011;15461;41.652;9.378;2023-10-09T00:19:00;6.65;;;4.13;;
28176;SDS011;15461;41.652;9.378;2023-10-09T00:21:42;9.88;;;4.50;;
28176;SDS011;15461;41.652;9.378;2023-10-09T00:24:09;8.23;;;4.68;;
28176;SDS011;15461;41.652;9.378;2023-10-09T00:26:44;11.68;;;4.70;;
28176;SDS011;15461;41.652;9.378;2023-10-09T00:31:43;12.60;;;4.75;;
28176;SDS011;15461;41.652;9.378;2023-10-09T00:34:32;7.85;;;4.50;;
28176;SDS011;15461;41.652;9.378;2023-10-09T00:37:11;6.45;;;4.32;;
28176;SDS011;15461;41.652;9.378;2023-10-09T00:40:03;7.32;;;4.30;;
28176;SDS011;15461;41.652;9.378;2023-10-09T00:42:45;7.45;;;4.68;;
28176;SDS011;15461;41.652;9.378;2023-10-09T00:45:12;8.15;;;4.18;;
28176;SDS011;15461;41.652;9.378;2023-10-09T00:47:49;6.95;;;4.38;;
28176;SDS011;15461;41.652;9.378;2023-10-09T00:50:16;8.32;;;4.15;;
28176;SDS011;15461;41.652;9.378;2023-10-09T00:52:53;8.23;;;4.70;;
28176;SDS011;15461;41.652;9.378;2023-10-09T00:55:26;5.60;;;4.30;;
28176;SDS011;15461;41.652;9.378;2023-10-09T00:58:03;7.25;;;4.75;;
28176;SDS011;15461;41.652;9.378;2023-10-09T01:00:38;7.82;;;4.70;;
28176;SDS011;15461;41.652;9.378;2023-10-09T01:03:11;6.10;;;3.90;;
28176;SDS011;15461;41.652;9.378;2023-10-09T01:05:41;7.40;;;4.65;;
28176;SDS011;15461;41.652;9.378;2023-10-09T01:08:22;8.98;;;4.70;;
28176;SDS011;15461;41.652;9.378;2023-10-09T01:10:56;6.68;;;4.90;;
28176;SDS011;15461;41.652;9.378;2023-10-09T01:13:33;8.02;;;4.63;;
28176;SDS011;15461;41.652;9.378;2023-10-09T01:16:11;7.80;;;4.40;;
28176;SDS011;15461;41.652;9.378;2023-10-09T01:18:51;6.65;;;4.13;;
28176;SDS011;15461;41.652;9.378;2023-10-09T01:21:20;7.22;;;4.43;;
28176;SDS011;15461;41.652;9.378;2023-10-09T01:23:51;7.28;;;4.82;;
28176;SDS011;15461;41.652;9.378;2023-10-09T01:29:04;8.95;;;4.47;;
28176;SDS011;15461;41.652;9.378;2023-10-09T01:31:35;6.78;;;4.47;;
28176;SDS011;15461;41.652;9.378;2023-10-09T01:34:09;7.13;;;4.70;;
28176;SDS011;15461;41.652;9.378;2023-10-09T01:36:37;7.43;;;4.63;;
28176;SDS011;15461;41.652;9.378;2023-10-09T01:39:06;6.88;;;4.63;;
28176;SDS011;15461;41.652;9.378;2023-10-09T01:41:50;7.85;;;4.55;;
28176;SDS011;15461;41.652;9.378;2023-10-09T01:44:23;6.47;;;4.45;;
28176;SDS011;15461;41.652;9.378;2023-10-09T01:46:51;6.72;;;4.03;;
28176;SDS011;15461;41.652;9.378;2023-10-09T01:49:20;5.47;;;4.15;;
28176;SDS011;15461;41.652;9.378;2023-10-09T01:51:55;7.78;;;4.60;;
28176;SDS011;15461;41.652;9.378;2023-10-09T01:54:25;6.55;;;4.30;;
28176;SDS011;15461;41.652;9.378;2023-10-09T01:57:06;7.35;;;4.18;;
28176;SDS011;15461;41.652;9.378;2023-10-09T01:59:39;6.65;;;4.50;;
28176;SDS011;15461;41.652;9.378;2023-10-09T02:02:37;5.80;;;4.40;;
28176;SDS011;15461;41.652;9.378;2023-10-09T02:05:04;5.80;;;4.25;;
28176;SDS011;15461;41.652;9.378;2023-10-09T02:07:36;8.60;;;4.43;;
28176;SDS011;15461;41.652;9.378;2023-10-09T02:10:18;8.30;;;3.88;;
28176;SDS011;15461;41.652;9.378;2023-10-09T02:12:51;7.05;;;4.57;;
28176;SDS011;15461;41.652;9.378;2023-10-09T02:15:27;5.90;;;4.32;;
28176;SDS011;15461;41.652;9.378;2023-10-09T02:18:06;7.82;;;4.95;;
28176;SDS011;15461;41.652;9.378;2023-10-09T02:23:30;5.72;;;4.35;;
28176;SDS011;15461;41.652;9.378;2023-10-09T02:26:10;6.47;;;4.30;;
28176;SDS011;15461;41.652;9.378;2023-10-09T02:28:57;6.25;;;4.25;;
28176;SDS011;15461;41.652;9.378;2023-10-09T02:31:29;7.65;;;4.40;;
28176;SDS011;15461;41.652;9.378;2023-10-09T02:34:16;7.65;;;4.15;;
28176;SDS011;15461;41.652;9.378;2023-10-09T02:36:42;5.72;;;4.10;;
28176;SDS011;15461;41.652;9.378;2023-10-09T02:39:15;7.85;;;4.03;;
28176;SDS011;15461;41.652;9.378;2023-10-09T02:42:00;8.25;;;4.53;;
28176;SDS011;15461;41.652;9.378;2023-10-09T02:44:31;6.18;;;3.92;;
28176;SDS011;15461;41.652;9.378;2023-10-09T02:47:04;4.72;;;3.38;;
28176;SDS011;15461;41.652;9.378;2023-10-09T02:49:37;6.65;;;4.18;;
28176;SDS011;15461;41.652;9.378;2023-10-09T02:52:05;7.18;;;4.25;;
28176;SDS011;15461;41.652;9.378;2023-10-09T02:54:33;6.68;;;4.45;;
28176;SDS011;15461;41.652;9.378;2023-10-09T02:57:06;6.30;;;4.28;;
28176;SDS011;15461;41.652;9.378;2023-10-09T02:59:33;6.20;;;4.28;;
28176;SDS011;15461;41.652;9.378;2023-10-09T03:02:02;6.25;;;3.95;;
28176;SDS011;15461;41.652;9.378;2023-10-09T03:04:28;4.88;;;3.90;;
28176;SDS011;15461;41.652;9.378;2023-10-09T03:06:57;5.32;;;4.18;;
28176;SDS011;15461;41.652;9.378;2023-10-09T03:09:23;4.63;;;3.65;;
28176;SDS011;15461;41.652;9.378;2023-10-09T03:11:56;5.35;;;3.72;;
28176;SDS011;15461;41.652;9.378;2023-10-09T03:14:29;6.35;;;4.10;;
28176;SDS011;15461;41.652;9.378;2023-10-09T03:16:56;7.00;;;4.47;;
28176;SDS011;15461;41.652;9.378;2023-10-09T03:19:26;11.82;;;4.65;;
28176;SDS011;15461;41.652;9.378;2023-10-09T03:24:27;5.05;;;3.72;;
28176;SDS011;15461;41.652;9.378;2023-10-09T03:26:53;7.35;;;4.32;;
28176;SDS011;15461;41.652;9.378;2023-10-09T03:29:22;7.13;;;4.30;;
28176;SDS011;15461;41.652;9.378;2023-10-09T03:31:48;6.53;;;4.32;;
28176;SDS011;15461;41.652;9.378;2023-10-09T03:34:16;7.50;;;4.07;;
28176;SDS011;15461;41.652;9.378;2023-10-09T03:36:43;7.25;;;4.55;;
28176;SDS011;15461;41.652;9.378;2023-10-09T03:39:10;8.13;;;4.30;;
28176;SDS011;15461;41.652;9.378;2023-10-09T03:41:59;5.32;;;3.78;;
28176;SDS011;15461;41.652;9.378;2023-10-09T03:44:25;6.90;;;4.00;;
28176;SDS011;15461;41.652;9.378;2023-10-09T03:46:54;6.15;;;4.15;;
28176;SDS011;15461;41.652;9.378;2023-10-09T03:49:20;5.32;;;4.25;;
28176;SDS011;15461;41.652;9.378;2023-10-09T03:51:52;6.80;;;3.78;;
28176;SDS011;15461;41.652;9.378;2023-10-09T03:54:18;6.47;;;4.32;;
28176;SDS011;15461;41.652;9.378;2023-10-09T03:56:48;5.30;;;3.55;;
28176;SDS011;15461;41.652;9.378;2023-10-09T03:59:18;6.40;;;4.28;;
28176;SDS011;15461;41.652;9.378;2023-10-09T04:01:47;5.93;;;4.00;;
28176;SDS011;15461;41.652;9.378;2023-10-09T04:04:16;6.68;;;4.10;;
28176;SDS011;15461;41.652;9.378;2023-10-09T04:06:41;6.53;;;4.60;;
28176;SDS011;15461;41.652;9.378;2023-10-09T04:09:08;6.05;;;4.13;;
28176;SDS011;15461;41.652;9.378;2023-10-09T04:11:50;5.88;;;3.95;;
28176;SDS011;15461;41.652;9.378;2023-10-09T04:14:37;6.80;;;4.25;;
28176;SDS011;15461;41.652;9.378;2023-10-09T04:17:20;5.05;;;3.95;;
28176;SDS011;15461;41.652;9.378;2023-10-09T04:19:58;7.55;;;4.10;;
28176;SDS011;15461;41.652;9.378;2023-10-09T04:22:59;8.68;;;3.90;;
28176;SDS011;15461;41.652;9.378;2023-10-09T04:25:29;8.80;;;3.78;;
28176;SDS011;15461;41.652;9.378;2023-10-09T04:28:06;7.10;;;4.25;;
28176;SDS011;15461;41.652;9.378;2023-10-09T04:30:47;6.60;;;4.00;;
28176;SDS011;15461;41.652;9.378;2023-10-09T04:33:19;6.25;;;4.05;;
28176;SDS011;15461;41.652;9.378;2023-10-09T04:36:03;5.95;;;3.78;;
28176;SDS011;15461;41.652;9.378;2023-10-09T04:38:47;6.88;;;4.03;;
28176;SDS011;15461;41.652;9.378;2023-10-09T04:41:29;6.35;;;4.45;;
28176;SDS011;15461;41.652;9.378;2023-10-09T04:44:07;8.73;;;4.20;;
28176;SDS011;15461;41.652;9.378;2023-10-09T04:46:50;5.80;;;3.63;;
28176;SDS011;15461;41.652;9.378;2023-10-09T04:49:34;5.68;;;3.78;;
28176;SDS011;15461;41.652;9.378;2023-10-09T04:52:14;7.13;;;4.05;;
28176;SDS011;15461;41.652;9.378;2023-10-09T04:55:04;6.07;;;3.97;;
28176;SDS011;15461;41.652;9.378;2023-10-09T04:57:36;7.45;;;4.25;;
28176;SDS011;15461;41.652;9.378;2023-10-09T05:00:11;7.65;;;4.45;;
28176;SDS011;15461;41.652;9.378;2023-10-09T05:02:50;5.57;;;4.07;;
28176;SDS011;15461;41.652;9.378;2023-10-09T05:05:23;8.52;;;4.10;;
28176;SDS011;15461;41.652;9.378;2023-10-09T05:08:14;5.53;;;3.88;;
28176;SDS011;15461;41.652;9.378;2023-10-09T05:10:44;8.68;;;4.30;;
28176;SDS011;15461;41.652;9.378;2023-10-09T05:13:34;5.93;;;3.80;;
28176;SDS011;15461;41.652;9.378;2023-10-09T05:16:06;7.00;;;4.65;;
28176;SDS011;15461;41.652;9.378;2023-10-09T05:18:33;8.30;;;4.13;;
28176;SDS011;15461;41.652;9.378;2023-10-09T05:21:03;7.13;;;4.38;;
28176;SDS011;15461;41.652;9.378;2023-10-09T05:23:37;5.82;;;3.95;;
28176;SDS011;15461;41.652;9.378;2023-10-09T05:26:16;6.85;;;4.47;;
28176;SDS011;15461;41.652;9.378;2023-10-09T05:29:02;6.75;;;3.95;;
28176;SDS011;15461;41.652;9.378;2023-10-09T05:31:47;6.03;;;4.05;;
28176;SDS011;15461;41.652;9.378;2023-10-09T05:34:25;9.20;;;4.00;;
28176;SDS011;15461;41.652;9.378;2023-10-09T05:37:05;7.00;;;4.20;;
28176;SDS011;15461;41.652;9.378;2023-10-09T05:39:48;6.30;;;4.30;;
28176;SDS011;15461;41.652;9.378;2023-10-09T05:42:32;6.30;;;3.75;;
28176;SDS011;15461;41.652;9.378;2023-10-09T05:50:26;21.25;;;4.40;;
28176;SDS011;15461;41.652;9.378;2023-10-09T05:52:53;8.43;;;4.60;;
28176;SDS011;15461;41.652;9.378;2023-10-09T05:55:20;8.05;;;4.10;;
28176;SDS011;15461;41.652;9.378;2023-10-09T05:57:53;7.55;;;3.65;;
28176;SDS011;15461;41.652;9.378;2023-10-09T06:00:28;9.30;;;3.83;;
28176;SDS011;15461;41.652;9.378;2023-10-09T06:03:12;10.00;;;4.20;;
28176;SDS011;15461;41.652;9.378;2023-10-09T06:05:45;8.10;;;4.32;;
28176;SDS011;15461;41.652;9.378;2023-10-09T06:08:23;9.93;;;4.45;;
28176;SDS011;15461;41.652;9.378;2023-10-09T06:10:55;8.60;;;4.20;;
28176;SDS011;15461;41.652;9.378;2023-10-09T06:13:31;9.02;;;4.43;;
28176;SDS011;15461;41.652;9.378;2023-10-09T06:16:05;6.90;;;4.40;;
28176;SDS011;15461;41.652;9.378;2023-10-09T06:18:51;9.75;;;4.43;;
28176;SDS011;15461;41.652;9.378;2023-10-09T06:21:33;12.30;;;4.53;;
28176;SDS011;15461;41.652;9.378;2023-10-09T06:24:24;17.38;;;4.38;;
28176;SDS011;15461;41.652;9.378;2023-10-09T06:27:07;6.83;;;4.93;;
28176;SDS011;15461;41.652;9.378;2023-10-09T06:29:36;7.43;;;4.40;;
28176;SDS011;15461;41.652;9.378;2023-10-09T06:32:10;10.98;;;3.72;;
28176;SDS011;15461;41.652;9.378;2023-10-09T06:34:43;5.35;;;4.15;;
28176;SDS011;15461;41.652;9.378;2023-10-09T06:37:22;9.00;;;4.22;;
28176;SDS011;15461;41.652;9.378;2023-10-09T06:39:49;15.10;;;5.00;;
28176;SDS011;15461;41.652;9.378;2023-10-09T06:42:16;11.18;;;3.92;;
28176;SDS011;15461;41.652;9.378;2023-10-09T06:45:02;6.60;;;4.20;;
28176;SDS011;15461;41.652;9.378;2023-10-09T06:47:42;6.75;;;4.15;;
28176;SDS011;15461;41.652;9.378;2023-10-09T06:50:18;9.75;;;4.35;;
28176;SDS011;15461;41.652;9.378;2023-10-09T06:52:54;9.43;;;4.68;;
28176;SDS011;15461;41.652;9.378;2023-10-09T06:55:25;11.15;;;4.32;;
28176;SDS011;15461;41.652;9.378;2023-10-09T06:58:01;6.55;;;4.57;;
28176;SDS011;15461;41.652;9.378;2023-10-09T07:00:41;7.40;;;4.72;;
28176;SDS011;15461;41.652;9.378;2023-10-09T07:03:26;6.97;;;4.30;;
28176;SDS011;15461;41.652;9.378;2023-10-09T07:06:08;7.82;;;4.53;;
28176;SDS011;15461;41.652;9.378;2023-10-09T07:08:53;7.50;;;4.60;;
28176;SDS011;15461;41.652;9.378;2023-10-09T07:11:33;6.78;;;4.68;;
28176;SDS011;15461;41.652;9.378;2023-10-09T07:14:08;11.27;;;4.97;;
28176;SDS011;15461;41.652;9.378;2023-10-09T07:16:53;6.15;;;4.70;;
28176;SDS011;15461;41.652;9.378;2023-10-09T07:19:27;6.82;;;4.82;;
28176;SDS011;15461;41.652;9.378;2023-10-09T07:21:59;8.13;;;5.00;;
28176;SDS011;15461;41.652;9.378;2023-10-09T07:24:29;5.72;;;4.53;;
28176;SDS011;15461;41.652;9.378;2023-10-09T07:27:14;7.82;;;4.43;;
28176;SDS011;15461;41.652;9.378;2023-10-09T07:29:41;6.63;;;3.80;;
28176;SDS011;15461;41.652;9.378;2023-10-09T07:32:13;5.53;;;4.32;;
28176;SDS011;15461;41.652;9.378;2023-10-09T07:34:50;6.93;;;4.03;;
28176;SDS011;15461;41.652;9.378;2023-10-09T07:37:23;5.50;;;4.18;;
28176;SDS011;15461;41.652;9.378;2023-10-09T07:39:51;6.68;;;3.80;;
28176;SDS011;15461;41.652;9.378;2023-10-09T07:42:26;7.53;;;4.32;;
28176;SDS011;15461;41.652;9.378;2023-10-09T07:44:59;6.97;;;4.40;;
28176;SDS011;15461;41.652;9.378;2023-10-09T07:47:37;6.22;;;3.63;;
28176;SDS011;15461;41.652;9.378;2023-10-09T07:50:34;5.45;;;3.78;;
28176;SDS011;15461;41.652;9.378;2023-10-09T07:53:09;5.40;;;3.85;;
28176;SDS011;15461;41.652;9.378;2023-10-09T07:55:51;4.93;;;3.38;;
28176;SDS011;15461;41.652;9.378;2023-10-09T07:58:22;6.63;;;3.53;;
28176;SDS011;15461;41.652;9.378;2023-10-09T08:00:55;5.15;;;3.40;;
28176;SDS011;15461;41.652;9.378;2023-10-09T08:03:40;5.97;;;3.50;;
28176;SDS011;15461;41.652;9.378;2023-10-09T08:06:11;7.13;;;3.53;;
28176;SDS011;15461;41.652;9.378;2023-10-09T08:08:58;5.70;;;3.58;;
28176;SDS011;15461;41.652;9.378;2023-10-09T08:11:27;5.75;;;3.67;;
28176;SDS011;15461;41.652;9.378;2023-10-09T08:14:05;5.10;;;3.40;;
28176;SDS011;15461;41.652;9.378;2023-10-09T08:16:52;4.50;;;2.50;;
28176;SDS011;15461;41.652;9.378;2023-10-09T08:19:37;5.18;;;3.53;;
28176;SDS011;15461;41.652;9.378;2023-10-09T08:22:21;9.02;;;3.20;;
28176;SDS011;15461;41.652;9.378;2023-10-09T08:27:23;3.97;;;3.00;;
28176;SDS011;15461;41.652;9.378;2023-10-09T08:29:59;5.28;;;3.20;;
28176;SDS011;15461;41.652;9.378;2023-10-09T08:32:38;6.07;;;3.42;;
28176;SDS011;15461;41.652;9.378;2023-10-09T08:35:05;7.32;;;3.35;;
28176;SDS011;15461;41.652;9.378;2023-10-09T08:37:51;5.38;;;3.20;;
28176;SDS011;15461;41.652;9.378;2023-10-09T08:40:18;4.32;;;2.78;;
28176;SDS011;15461;41.652;9.378;2023-10-09T08:42:53;7.07;;;2.95;;
28176;SDS011;15461;41.652;9.378;2023-10-09T08:45:21;5.50;;;3.00;;
28176;SDS011;15461;41.652;9.378;2023-10-09T08:47:55;4.45;;;3.20;;
28176;SDS011;15461;41.652;9.378;2023-10-09T08:50:22;9.60;;;3.75;;
28176;SDS011;15461;41.652;9.378;2023-10-09T08:52:53;5.00;;;3.20;;
28176;SDS011;15461;41.652;9.378;2023-10-09T08:55:20;6.10;;;3.70;;
28176;SDS011;15461;41.652;9.378;2023-10-09T08:57:46;4.60;;;3.15;;
28176;SDS011;15461;41.652;9.378;2023-10-09T09:00:18;5.72;;;3.10;;
28176;SDS011;15461;41.652;9.378;2023-10-09T09:02:49;5.65;;;3.40;;
28176;SDS011;15461;41.652;9.378;2023-10-09T09:05:18;4.47;;;3.33;;
28176;SDS011;15461;41.652;9.378;2023-10-09T09:07:54;5.60;;;3.50;;
28176;SDS011;15461;41.652;9.378;2023-10-09T09:10:30;6.30;;;3.72;;
28176;SDS011;15461;41.652;9.378;2023-10-09T09:13:14;6.32;;;3.38;;
28176;SDS011;15461;41.652;9.378;2023-10-09T09:15:46;5.03;;;3.15;;
28176;SDS011;15461;41.652;9.378;2023-10-09T09:18:12;4.90;;;3.55;;
28176;SDS011;15461;41.652;9.378;2023-10-09T09:20:42;4.93;;;3.25;;
28176;SDS011;15461;41.652;9.378;2023-10-09T09:23:12;6.60;;;3.58;;
28176;SDS011;15461;41.652;9.378;2023-10-09T09:28:13;5.93;;;3.42;;
28176;SDS011;15461;41.652;9.378;2023-10-09T09:30:45;12.52;;;3.50;;
28176;SDS011;15461;41.652;9.378;2023-10-09T09:33:22;10.45;;;3.50;;
28176;SDS011;15461;41.652;9.378;2023-10-09T09:36:04;5.13;;;3.22;;
28176;SDS011;15461;41.652;9.378;2023-10-09T09:38:32;5.75;;;3.90;;
28176;SDS011;15461;41.652;9.378;2023-10-09T09:41:18;5.72;;;3.85;;
28176;SDS011;15461;41.652;9.378;2023-10-09T09:43:54;6.75;;;3.42;;
28176;SDS011;15461;41.652;9.378;2023-10-09T09:46:31;5.90;;;3.80;;
28176;SDS011;15461;41.652;9.378;2023-10-09T09:49:05;8.25;;;3.50;;
28176;SDS011;15461;41.652;9.378;2023-10-09T09:51:44;5.28;;;3.47;;
28176;SDS011;15461;41.652;9.378;2023-10-09T09:54:12;5.80;;;3.83;;
28176;SDS011;15461;41.652;9.378;2023-10-09T09:56:42;8.70;;;3.72;;
28176;SDS011;15461;41.652;9.378;2023-10-09T09:59:16;5.57;;;3.80;;
28176;SDS011;15461;41.652;9.378;2023-10-09T10:01:48;6.43;;;3.97;;
28176;SDS011;15461;41.652;9.378;2023-10-09T10:04:31;7.13;;;3.70;;
28176;SDS011;15461;41.652;9.378;2023-10-09T10:07:00;4.95;;;3.45;;
28176;SDS011;15461;41.652;9.378;2023-10-09T10:09:41;4.70;;;3.55;;
28176;SDS011;15461;41.652;9.378;2023-10-09T10:12:11;4.55;;;2.95;;
28176;SDS011;15461;41.652;9.378;2023-10-09T10:14:58;6.75;;;3.65;;
28176;SDS011;15461;41.652;9.378;2023-10-09T10:17:30;4.72;;;3.55;;
28176;SDS011;15461;41.652;9.378;2023-10-09T10:22:29;6.65;;;3.60;;
28176;SDS011;15461;41.652;9.378;2023-10-09T10:24:58;7.03;;;4.30;;
28176;SDS011;15461;41.652;9.378;2023-10-09T10:27:28;5.78;;;3.58;;
28176;SDS011;15461;41.652;9.378;2023-10-09T10:30:27;4.30;;;3.30;;
28176;SDS011;15461;41.652;9.378;2023-10-09T10:32:59;5.75;;;3.70;;
28176;SDS011;15461;41.652;9.378;2023-10-09T10:35:34;6.35;;;3.85;;
28176;SDS011;15461;41.652;9.378;2023-10-09T10:38:29;6.72;;;4.10;;
28176;SDS011;15461;41.652;9.378;2023-10-09T10:41:18;6.75;;;3.80;;
28176;SDS011;15461;41.652;9.378;2023-10-09T10:43:48;5.70;;;3.70;;
28176;SDS011;15461;41.652;9.378;2023-10-09T10:46:17;4.90;;;3.78;;
28176;SDS011;15461;41.652;9.378;2023-10-09T10:49:06;4.65;;;3.22;;
28176;SDS011;15461;41.652;9.378;2023-10-09T10:51:51;8.25;;;3.75;;
28176;SDS011;15461;41.652;9.378;2023-10-09T10:54:26;4.30;;;3.40;;
28176;SDS011;15461;41.652;9.378;2023-10-09T10:56:59;7.53;;;4.20;;
28176;SDS011;15461;41.652;9.378;2023-10-09T10:59:32;6.70;;;4.22;;
28176;SDS011;15461;41.652;9.378;2023-10-09T11:02:10;7.68;;;4.00;;
28176;SDS011;15461;41.652;9.378;2023-10-09T11:04:36;6.22;;;4.00;;
28176;SDS011;15461;41.652;9.378;2023-10-09T11:07:07;7.07;;;3.63;;
28176;SDS011;15461;41.652;9.378;2023-10-09T11:09:56;5.72;;;3.85;;
28176;SDS011;15461;41.652;9.378;2023-10-09T11:15:07;6.18;;;3.70;;
28176;SDS011;15461;41.652;9.378;2023-10-09T11:18:01;5.55;;;3.70;;
28176;SDS011;15461;41.652;9.378;2023-10-09T11:20:42;4.93;;;3.30;;
28176;SDS011;15461;41.652;9.378;2023-10-09T11:23:22;4.95;;;3.33;;
28176;SDS011;15461;41.652;9.378;2023-10-09T11:26:07;6.05;;;4.07;;
28176;SDS011;15461;41.652;9.378;2023-10-09T11:32:03;3.92;;;3.47;;
28176;SDS011;15461;41.652;9.378;2023-10-09T11:34:30;6.60;;;4.10;;
28176;SDS011;15461;41.652;9.378;2023-10-09T11:37:19;17.23;;;4.05;;
28176;SDS011;15461;41.652;9.378;2023-10-09T11:39:53;8.27;;;4.13;;
28176;SDS011;15461;41.652;9.378;2023-10-09T11:42:19;5.93;;;3.92;;
28176;SDS011;15461;41.652;9.378;2023-10-09T11:45:08;5.63;;;3.40;;
28176;SDS011;15461;41.652;9.378;2023-10-09T11:47:47;6.32;;;4.05;;
28176;SDS011;15461;41.652;9.378;2023-10-09T11:50:45;5.68;;;3.70;;
28176;SDS011;15461;41.652;9.378;2023-10-09T11:53:27;5.50;;;3.53;;
28176;SDS011;15461;41.652;9.378;2023-10-09T11:55:53;5.00;;;3.63;;
28176;SDS011;15461;41.652;9.378;2023-10-09T11:58:19;10.23;;;4.03;;
28176;SDS011;15461;41.652;9.378;2023-10-09T12:00:55;5.18;;;3.20;;
28176;SDS011;15461;41.652;9.378;2023-10-09T12:03:27;5.75;;;3.00;;
28176;SDS011;15461;41.652;9.378;2023-10-09T12:06:01;5.82;;;3.80;;
28176;SDS011;15461;41.652;9.378;2023-10-09T12:08:31;5.63;;;3.53;;
28176;SDS011;15461;41.652;9.378;2023-10-09T12:10:58;5.70;;;3.38;;
28176;SDS011;15461;41.652;9.378;2023-10-09T12:13:24;6.28;;;3.63;;
28176;SDS011;15461;41.652;9.378;2023-10-09T12:15:51;6.45;;;4.03;;
28176;SDS011;15461;41.652;9.378;2023-10-09T12:18:18;7.30;;;3.88;;
28176;SDS011;15461;41.652;9.378;2023-10-09T12:20:45;6.63;;;3.67;;
28176;SDS011;15461;41.652;9.378;2023-10-09T12:23:27;6.53;;;3.83;;
28176;SDS011;15461;41.652;9.378;2023-10-09T12:25:53;6.75;;;3.75;;
28176;SDS011;15461;41.652;9.378;2023-10-09T12:28:22;7.25;;;3.67;;
28176;SDS011;15461;41.652;9.378;2023-10-09T12:30:48;5.10;;;3.35;;
28176;SDS011;15461;41.652;9.378;2023-10-09T12:33:18;6.32;;;4.38;;
28176;SDS011;15461;41.652;9.378;2023-10-09T12:35:45;8.07;;;4.13;;
28176;SDS011;15461;41.652;9.378;2023-10-09T12:38:11;7.22;;;3.78;;
28176;SDS011;15461;41.652;9.378;2023-10-09T12:40:38;6.22;;;3.67;;
28176;SDS011;15461;41.652;9.378;2023-10-09T12:43:06;4.95;;;3.90;;
28176;SDS011;15461;41.652;9.378;2023-10-09T12:45:41;6.75;;;3.80;;
28176;SDS011;15461;41.652;9.378;2023-10-09T12:48:07;7.45;;;3.65;;
28176;SDS011;15461;41.652;9.378;2023-10-09T12:50:38;5.57;;;3.78;;
28176;SDS011;15461;41.652;9.378;2023-10-09T12:53:07;5.57;;;3.75;;
28176;SDS011;15461;41.652;9.378;2023-10-09T12:58:06;5.47;;;3.35;;
28176;SDS011;15461;41.652;9.378;2023-10-09T13:00:36;8.20;;;3.70;;
28176;SDS011;15461;41.652;9.378;2023-10-09T13:03:08;6.53;;;4.00;;
28176;SDS011;15461;41.652;9.378;2023-10-09T13:08:23;6.57;;;3.30;;
28176;SDS011;15461;41.652;9.378;2023-10-09T13:10:57;4.68;;;3.53;;
28176;SDS011;15461;41.652;9.378;2023-10-09T13:13:39;4.93;;;3.28;;
28176;SDS011;15461;41.652;9.378;2023-10-09T13:16:10;6.10;;;3.35;;
28176;SDS011;15461;41.652;9.378;2023-10-09T13:18:41;5.88;;;3.85;;
28176;SDS011;15461;41.652;9.378;2023-10-09T13:21:21;4.88;;;3.50;;
28176;SDS011;15461;41.652;9.378;2023-10-09T13:23:51;5.10;;;3.80;;
28176;SDS011;15461;41.652;9.378;2023-10-09T13:26:20;6.95;;;3.85;;
28176;SDS011;15461;41.652;9.378;2023-10-09T13:28:53;5.30;;;3.30;;
28176;SDS011;15461;41.652;9.378;2023-10-09T13:31:20;5.93;;;4.03;;
28176;SDS011;15461;41.652;9.378;2023-10-09T13:33:50;5.32;;;3.63;;
28176;SDS011;15461;41.652;9.378;2023-10-09T13:36:20;7.53;;;3.53;;
28176;SDS011;15461;41.652;9.378;2023-10-09T13:38:52;4.63;;;3.42;;
28176;SDS011;15461;41.652;9.378;2023-10-09T13:41:45;4.72;;;3.20;;
28176;SDS011;15461;41.652;9.378;2023-10-09T13:44:11;4.55;;;3.42;;
28176;SDS011;15461;41.652;9.378;2023-10-09T13:46:37;6.00;;;3.40;;
28176;SDS011;15461;41.652;9.378;2023-10-09T13:49:09;5.00;;;3.45;;
28176;SDS011;15461;41.652;9.378;2023-10-09T13:51:42;5.03;;;3.30;;
28176;SDS011;15461;41.652;9.378;2023-10-09T13:54:12;4.28;;;3.22;;
28176;SDS011;15461;41.652;9.378;2023-10-09T13:56:53;4.90;;;3.30;;
28176;SDS011;15461;41.652;9.378;2023-10-09T13:59:22;4.40;;;3.10;;
28176;SDS011;15461;41.652;9.378;2023-10-09T14:01:53;6.10;;;3.88;;
28176;SDS011;15461;41.652;9.378;2023-10-09T14:04:20;3.80;;;2.97;;
28176;SDS011;15461;41.652;9.378;2023-10-09T14:06:48;5.07;;;3.30;;
28176;SDS011;15461;41.652;9.378;2023-10-09T14:09:22;7.72;;;3.20;;
28176;SDS011;15461;41.652;9.378;2023-10-09T14:12:03;5.55;;;3.50;;
28176;SDS011;15461;41.652;9.378;2023-10-09T14:14:40;5.18;;;3.47;;
28176;SDS011;15461;41.652;9.378;2023-10-09T14:17:17;4.97;;;3.25;;
28176;SDS011;15461;41.652;9.378;2023-10-09T14:19:53;6.40;;;3.50;;
28176;SDS011;15461;41.652;9.378;2023-10-09T14:24:52;4.80;;;2.92;;
28176;SDS011;15461;41.652;9.378;2023-10-09T14:27:22;5.05;;;3.30;;
28176;SDS011;15461;41.652;9.378;2023-10-09T14:29:52;7.28;;;3.72;;
28176;SDS011;15461;41.652;9.378;2023-10-09T14:32:24;9.52;;;3.80;;
28176;SDS011;15461;41.652;9.378;2023-10-09T14:34:54;5.15;;;3.47;;
28176;SDS011;15461;41.652;9.378;2023-10-09T14:37:26;4.03;;;2.90;;
28176;SDS011;15461;41.652;9.378;2023-10-09T14:39:56;4.43;;;2.97;;
28176;SDS011;15461;41.652;9.378;2023-10-09T14:42:23;5.18;;;3.55;;
28176;SDS011;15461;41.652;9.378;2023-10-09T14:44:52;4.47;;;3.30;;
28176;SDS011;15461;41.652;9.378;2023-10-09T14:47:20;6.55;;;3.80;;
28176;SDS011;15461;41.652;9.378;2023-10-09T14:49:46;5.18;;;3.42;;
28176;SDS011;15461;41.652;9.378;2023-10-09T14:52:13;5.05;;;3.17;;
28176;SDS011;15461;41.652;9.378;2023-10-09T14:54:44;6.20;;;3.55;;
28176;SDS011;15461;41.652;9.378;2023-10-09T14:57:10;4.32;;;3.10;;
28176;SDS011;15461;41.652;9.378;2023-10-09T14:59:37;5.70;;;3.00;;
28176;SDS011;15461;41.652;9.378;2023-10-09T15:02:03;9.50;;;3.33;;
28176;SDS011;15461;41.652;9.378;2023-10-09T15:04:32;7.22;;;3.50;;
28176;SDS011;15461;41.652;9.378;2023-10-09T15:07:02;6.38;;;3.40;;
28176;SDS011;15461;41.652;9.378;2023-10-09T15:09:32;4.60;;;2.88;;
28176;SDS011;15461;41.652;9.378;2023-10-09T15:12:00;5.28;;;3.55;;
28176;SDS011;15461;41.652;9.378;2023-10-09T15:14:26;4.90;;;3.25;;
28176;SDS011;15461;41.652;9.378;2023-10-09T15:16:52;5.47;;;3.50;;
28176;SDS011;15461;41.652;9.378;2023-10-09T15:19:17;5.55;;;3.25;;
28176;SDS011;15461;41.652;9.378;2023-10-09T15:21:44;4.78;;;3.13;;
28176;SDS011;15461;41.652;9.378;2023-10-09T15:24:10;6.03;;;3.65;;
28176;SDS011;15461;41.652;9.378;2023-10-09T15:26:44;6.70;;;3.85;;
28176;SDS011;15461;41.652;9.378;2023-10-09T15:29:31;6.43;;;3.88;;
28176;SDS011;15461;41.652;9.378;2023-10-09T15:31:58;5.38;;;3.42;;
28176;SDS011;15461;41.652;9.378;2023-10-09T15:34:39;4.50;;;3.20;;
28176;SDS011;15461;41.652;9.378;2023-10-09T15:37:06;5.85;;;3.60;;
28176;SDS011;15461;41.652;9.378;2023-10-09T15:39:38;4.83;;;3.67;;
28176;SDS011;15461;41.652;9.378;2023-10-09T15:42:04;4.97;;;3.30;;
28176;SDS011;15461;41.652;9.378;2023-10-09T15:44:32;6.00;;;3.47;;
28176;SDS011;15461;41.652;9.378;2023-10-09T15:47:04;5.28;;;3.47;;
28176;SDS011;15461;41.652;9.378;2023-10-09T15:49:33;4.95;;;3.40;;
28176;SDS011;15461;41.652;9.378;2023-10-09T15:52:02;5.75;;;3.35;;
28176;SDS011;15461;41.652;9.378;2023-10-09T15:54:28;6.07;;;3.42;;
28176;SDS011;15461;41.652;9.378;2023-10-09T15:56:55;4.75;;;3.00;;
28176;SDS011;15461;41.652;9.378;2023-10-09T15:59:22;5.90;;;3.35;;
28176;SDS011;15461;41.652;9.378;2023-10-09T16:01:49;6.50;;;3.85;;
28176;SDS011;15461;41.652;9.378;2023-10-09T16:04:16;7.50;;;3.75;;
28176;SDS011;15461;41.652;9.378;2023-10-09T16:06:42;6.10;;;3.70;;